createdAt,value
2018-11-25T07:57:59.056Z,4.40
2018-11-25T08:00:03.602Z,4.30
2018-11-25T08:02:07.948Z,4.40
2018-11-25T08:04:12.376Z,4.40
2018-11-25T08:06:16.755Z,4.40
2018-11-25T08:08:21.238Z,4.40
2018-11-25T08:10:25.636Z,4.40
2018-11-25T08:12:30.029Z,4.40
2018-11-25T08:14:34.444Z,4.40
2018-11-25T08:16:38.878Z,4.40
2018-11-25T08:18:43.256Z,4.40
2018-11-25T08:20:47.614Z,4.40
2018-11-25T08:22:52.083Z,4.40
2018-11-25T08:24:56.432Z,4.40
2018-11-25T08:27:00.830Z,4.40
2018-11-25T08:29:05.321Z,4.40
2018-11-25T08:31:09.673Z,4.40
2018-11-25T08:33:14.081Z,4.40
2018-11-25T08:35:18.779Z,4.40
2018-11-25T08:37:23.197Z,4.50
2018-11-25T08:39:28.413Z,4.50
2018-11-25T08:41:32.064Z,4.50
2018-11-25T08:43:36.419Z,4.50
2018-11-25T08:45:40.830Z,4.50
2018-11-25T08:47:45.258Z,4.50
2018-11-25T08:49:49.742Z,4.50
2018-11-25T08:51:54.142Z,4.50
2018-11-25T08:53:58.539Z,4.50
2018-11-25T08:56:03.129Z,4.50
2018-11-25T08:58:07.525Z,4.50
2018-11-25T09:00:14.905Z,4.50
2018-11-25T09:02:19.577Z,4.50
2018-11-25T09:04:23.938Z,4.50
2018-11-25T09:06:28.317Z,4.50
2018-11-25T09:08:33.047Z,4.60
2018-11-25T09:10:37.412Z,4.60
2018-11-25T09:12:41.855Z,4.70
2018-11-25T09:14:46.240Z,4.60
2018-11-25T09:16:50.729Z,4.60
2018-11-25T09:18:55.115Z,4.70
2018-11-25T09:20:59.498Z,4.70
2018-11-25T09:23:03.953Z,4.70
2018-11-25T09:25:10.248Z,4.70
2018-11-25T09:27:14.658Z,4.70
2018-11-25T09:29:19.831Z,4.70
2018-11-25T09:31:24.245Z,4.80
2018-11-25T09:33:28.679Z,4.80
2018-11-25T09:35:33.091Z,4.80
2018-11-25T09:37:37.573Z,4.80
2018-11-25T09:39:41.967Z,4.80
2018-11-25T09:41:46.325Z,4.70
2018-11-25T09:43:50.841Z,4.80
2018-11-25T09:45:55.189Z,4.80
2018-11-25T09:47:59.580Z,4.80
2018-11-25T09:50:04.506Z,4.80
2018-11-25T09:52:08.900Z,4.80
2018-11-25T09:54:13.314Z,4.80
2018-11-25T09:56:17.673Z,4.80
2018-11-25T09:58:25.499Z,4.80
2018-11-25T10:00:29.195Z,4.80
2018-11-25T10:02:33.596Z,4.80
2018-11-25T10:04:38.139Z,4.90
2018-11-25T10:06:42.694Z,4.80
2018-11-25T10:08:47.130Z,4.90
2018-11-25T10:10:52.745Z,4.80
2018-11-25T10:12:56.145Z,4.80
2018-11-25T10:15:00.592Z,4.90
2018-11-25T10:17:05.278Z,4.90
2018-11-25T10:19:09.684Z,4.80
2018-11-25T10:21:14.079Z,4.80
2018-11-25T10:23:18.413Z,4.90
2018-11-25T10:25:22.876Z,4.90
2018-11-25T10:27:27.288Z,4.90
2018-11-25T10:29:31.706Z,4.90
2018-11-25T10:31:36.129Z,4.80
2018-11-25T10:33:40.572Z,4.80
2018-11-25T10:35:45.006Z,4.90
2018-11-25T10:37:49.472Z,4.90
2018-11-25T10:39:54.001Z,4.80
2018-11-25T10:41:58.388Z,4.80
2018-11-25T10:44:03.045Z,4.90
2018-11-25T10:46:07.533Z,4.90
2018-11-25T10:48:12.024Z,4.90
2018-11-25T10:50:24.158Z,4.90
2018-11-25T10:52:28.741Z,4.80
2018-11-25T10:54:33.157Z,4.80
2018-11-25T10:56:38.469Z,4.80
2018-11-25T10:58:42.962Z,4.80
2018-11-25T11:00:52.593Z,4.90
2018-11-25T11:03:02.435Z,4.80
2018-11-25T11:05:07.760Z,4.80
2018-11-25T11:07:17.291Z,4.80
2018-11-25T11:09:21.705Z,4.80
2018-11-25T11:11:26.282Z,4.80
2018-11-25T11:13:30.732Z,4.80
2018-11-25T11:15:35.192Z,4.90
2018-11-25T11:17:39.610Z,4.80
2018-11-25T11:19:44.062Z,4.90
2018-11-25T11:21:48.468Z,4.80
2018-11-25T11:23:52.917Z,4.90
2018-11-25T11:25:57.312Z,4.90
2018-11-25T11:28:01.711Z,4.90
2018-11-25T11:30:08.978Z,4.90
2018-11-25T11:32:13.429Z,4.80
2018-11-25T11:34:17.824Z,4.80
2018-11-25T11:36:22.215Z,4.80
2018-11-25T11:38:26.643Z,4.80
2018-11-25T11:40:31.130Z,4.80
2018-11-25T11:42:35.512Z,4.90
2018-11-25T11:44:40.515Z,4.80
2018-11-25T11:46:44.926Z,4.80
2018-11-25T11:48:49.373Z,4.80
2018-11-25T11:50:53.772Z,4.80
2018-11-25T11:52:58.193Z,4.80
2018-11-25T11:55:02.581Z,4.80
2018-11-25T11:57:07.116Z,4.90
2018-11-25T11:59:11.659Z,4.80
2018-11-25T12:01:16.041Z,4.80
2018-11-25T12:03:26.333Z,4.90
2018-11-25T12:05:25.325Z,4.90
2018-11-25T12:07:29.745Z,4.80
2018-11-25T12:09:34.122Z,4.90
2018-11-25T12:11:38.581Z,4.90
2018-11-25T12:13:43.094Z,4.90
2018-11-25T12:15:47.482Z,4.90
2018-11-25T12:17:51.943Z,4.90
2018-11-25T12:19:56.498Z,4.90
2018-11-25T12:22:00.976Z,4.90
2018-11-25T12:24:06.456Z,4.90
2018-11-25T12:26:10.913Z,5.00
2018-11-25T12:28:15.334Z,4.90
2018-11-25T12:30:19.797Z,4.90
2018-11-25T12:32:24.237Z,4.90
2018-11-25T12:34:28.626Z,4.90
2018-11-25T12:36:33.129Z,4.90
2018-11-25T12:38:37.549Z,4.90
2018-11-25T12:40:41.999Z,4.90
2018-11-25T12:42:50.590Z,4.90
2018-11-25T12:44:55.096Z,4.90
2018-11-25T12:46:59.617Z,4.90
2018-11-25T12:49:04.067Z,4.90
2018-11-25T12:51:08.534Z,5.00
2018-11-25T12:53:13.040Z,5.00
2018-11-25T12:55:18.627Z,5.00
2018-11-25T12:57:23.093Z,5.00
2018-11-25T12:59:27.529Z,5.00
2018-11-25T13:01:32.090Z,5.00
2018-11-25T13:03:36.517Z,5.00
2018-11-25T13:05:45.920Z,5.00
2018-11-25T13:07:46.381Z,5.00
2018-11-25T13:09:50.794Z,5.00
2018-11-25T13:11:55.239Z,5.00
2018-11-25T13:13:59.668Z,5.00
2018-11-25T13:16:04.114Z,5.00
2018-11-25T13:18:09.422Z,5.00
2018-11-25T13:20:15.282Z,4.90
2018-11-25T13:22:19.722Z,4.90
2018-11-25T13:24:24.107Z,4.90
2018-11-25T13:26:28.550Z,5.00
2018-11-25T13:28:33.014Z,4.90
2018-11-25T13:30:37.445Z,4.90
2018-11-25T13:32:41.932Z,4.90
2018-11-25T13:34:46.373Z,4.90
2018-11-25T13:36:50.814Z,4.90
2018-11-25T13:38:55.284Z,4.90
2018-11-25T13:40:59.732Z,4.90
2018-11-25T13:43:04.240Z,4.90
2018-11-25T13:45:07.362Z,4.90
2018-11-25T13:47:12.588Z,4.90
2018-11-25T13:49:17.077Z,4.90
2018-11-25T13:51:21.596Z,4.90
2018-11-25T13:53:25.993Z,4.90
2018-11-25T13:55:30.409Z,4.90
2018-11-25T13:57:34.841Z,4.90
2018-11-25T13:59:39.316Z,4.90
2018-11-25T14:01:43.698Z,4.90
2018-11-25T14:03:49.221Z,4.90
2018-11-25T14:05:53.749Z,4.90
2018-11-25T14:07:58.136Z,4.90
2018-11-25T14:10:02.607Z,4.90
2018-11-25T14:12:07.042Z,4.90
2018-11-25T14:14:11.509Z,4.80
2018-11-25T14:16:17.797Z,4.90
2018-11-25T14:18:22.221Z,4.90
2018-11-25T14:20:26.647Z,4.80
2018-11-25T14:22:32.067Z,4.90
2018-11-25T14:24:36.473Z,4.90
2018-11-25T14:26:59.016Z,4.90
2018-11-25T14:29:03.433Z,4.90
2018-11-25T14:31:07.902Z,4.90
2018-11-25T14:33:12.604Z,4.90
2018-11-25T14:35:17.642Z,4.90
2018-11-25T14:37:22.146Z,4.90
2018-11-25T14:39:26.633Z,4.90
2018-11-25T14:41:31.042Z,4.90
2018-11-25T14:43:35.517Z,4.90
2018-11-25T14:45:39.933Z,4.90
2018-11-25T14:47:44.322Z,4.90
2018-11-25T14:49:48.845Z,4.90
2018-11-25T14:51:53.343Z,4.90
2018-11-25T14:53:57.740Z,4.90
2018-11-25T14:56:02.146Z,4.90
2018-11-25T14:58:06.645Z,4.90
2018-11-25T15:00:18.939Z,4.90
2018-11-25T15:02:23.516Z,4.90
2018-11-25T15:04:28.009Z,4.90
2018-11-25T15:06:32.454Z,4.90
2018-11-25T15:08:36.862Z,4.90
2018-11-25T15:10:41.424Z,4.80
2018-11-25T15:12:45.789Z,4.80
2018-11-25T15:14:50.260Z,4.80
2018-11-25T15:16:54.825Z,4.90
2018-11-25T15:18:59.288Z,4.80
2018-11-25T15:21:03.774Z,4.80
2018-11-25T15:23:09.637Z,4.90
2018-11-25T15:25:17.371Z,4.80
2018-11-25T15:27:21.778Z,4.80
2018-11-25T15:29:27.042Z,4.90
2018-11-25T15:31:31.421Z,4.80
2018-11-25T15:33:36.457Z,4.90
2018-11-25T15:35:45.440Z,4.90
2018-11-25T15:37:50.935Z,4.90
2018-11-25T15:39:55.349Z,4.80
2018-11-25T15:41:59.758Z,4.90
2018-11-25T15:44:04.305Z,4.90
2018-11-25T15:46:09.879Z,4.90
2018-11-25T15:48:16.520Z,4.90
2018-11-25T15:50:24.465Z,4.90
2018-11-25T15:52:28.928Z,4.90
2018-11-25T15:54:33.346Z,4.90
2018-11-25T15:56:37.725Z,4.90
2018-11-25T15:58:42.145Z,4.90
2018-11-25T16:00:46.590Z,4.90
2018-11-25T16:02:51.834Z,4.90
2018-11-25T16:04:56.176Z,4.90
2018-11-25T16:07:00.770Z,5.00
2018-11-25T16:09:07.456Z,5.00
2018-11-25T16:11:12.531Z,5.00
2018-11-25T16:13:17.101Z,5.00
2018-11-25T16:15:23.748Z,5.00
2018-11-25T16:17:28.238Z,4.90
2018-11-25T16:19:32.691Z,5.00
2018-11-25T16:21:37.111Z,4.90
2018-11-25T16:23:42.250Z,4.90
2018-11-25T16:25:48.430Z,5.00
2018-11-25T16:27:54.943Z,4.90
2018-11-25T16:30:00.815Z,4.90
2018-11-25T16:32:05.577Z,5.00
2018-11-25T16:34:10.627Z,4.90
2018-11-25T16:36:15.109Z,5.00
2018-11-25T16:38:19.585Z,5.00
2018-11-25T16:40:24.771Z,4.90
2018-11-25T16:42:29.243Z,4.90
2018-11-25T16:44:33.664Z,5.00
2018-11-25T16:46:38.075Z,4.90
2018-11-25T16:48:42.480Z,5.00
2018-11-25T16:50:47.046Z,5.00
2018-11-25T16:52:51.542Z,5.00
2018-11-25T16:54:55.934Z,5.00
2018-11-25T16:57:00.420Z,5.00
2018-11-25T16:59:04.879Z,4.90
2018-11-25T17:01:10.417Z,5.00
2018-11-25T17:03:14.423Z,5.00
2018-11-25T17:05:21.978Z,5.00
2018-11-25T17:07:27.082Z,5.00
2018-11-25T17:09:31.563Z,5.00
2018-11-25T17:11:35.963Z,5.00
2018-11-25T17:13:44.093Z,5.00
2018-11-25T17:15:48.491Z,4.90
2018-11-25T17:17:53.453Z,5.00
2018-11-25T17:19:57.890Z,5.00
2018-11-25T17:22:02.409Z,5.00
2018-11-25T17:24:06.912Z,5.00
2018-11-25T17:26:12.337Z,5.00
2018-11-25T17:28:17.795Z,5.00
2018-11-25T17:30:22.230Z,5.00
2018-11-25T17:32:28.987Z,5.00
2018-11-25T17:34:33.624Z,5.00
2018-11-25T17:36:38.066Z,5.00
2018-11-25T17:38:43.278Z,5.00
2018-11-25T17:40:47.700Z,5.00
2018-11-25T17:42:52.226Z,5.00
2018-11-25T17:44:56.603Z,5.00
2018-11-25T17:47:01.023Z,5.00
2018-11-25T17:49:05.707Z,5.00
2018-11-25T17:51:11.362Z,5.00
2018-11-25T17:53:20.723Z,5.00
2018-11-25T17:55:21.254Z,5.00
2018-11-25T17:57:27.806Z,5.00
2018-11-25T17:59:32.431Z,5.00
2018-11-25T18:01:37.089Z,5.10
2018-11-25T18:03:43.361Z,5.00
2018-11-25T18:05:47.920Z,5.10
2018-11-25T18:07:52.311Z,5.10
2018-11-25T18:09:56.785Z,5.10
2018-11-25T18:12:01.230Z,5.00
2018-11-25T18:14:06.837Z,5.10
2018-11-25T18:16:17.649Z,5.10
2018-11-25T18:18:28.036Z,5.10
2018-11-25T18:20:37.310Z,5.10
2018-11-25T18:22:45.669Z,5.10
2018-11-25T18:24:50.873Z,5.10
2018-11-25T18:26:55.529Z,5.10
2018-11-25T18:28:59.929Z,5.10
2018-11-25T18:31:04.566Z,5.10
2018-11-25T18:33:09.894Z,5.10
2018-11-25T18:35:17.343Z,5.10
2018-11-25T18:37:23.034Z,5.10
2018-11-25T18:39:28.230Z,5.20
2018-11-25T18:41:32.929Z,5.20
2018-11-25T18:43:37.767Z,5.20
2018-11-25T18:45:42.434Z,5.20
2018-11-25T18:47:47.947Z,5.20
2018-11-25T18:49:52.541Z,5.20
2018-11-25T18:52:04.925Z,5.20
2018-11-25T18:54:01.508Z,5.20
2018-11-25T18:56:06.218Z,5.30
2018-11-25T18:58:10.664Z,5.20
2018-11-25T19:00:32.205Z,5.20
2018-11-25T19:02:43.772Z,5.30
2018-11-25T19:04:48.169Z,5.30
2018-11-25T19:06:56.909Z,5.30
2018-11-25T19:09:01.540Z,5.30
2018-11-25T19:11:08.480Z,5.30
2018-11-25T19:13:12.966Z,5.30
2018-11-25T19:15:18.580Z,5.30
2018-11-25T19:17:24.317Z,5.30
2018-11-25T19:19:28.838Z,5.30
2018-11-25T19:21:33.472Z,5.30
2018-11-25T19:23:38.300Z,5.30
2018-11-25T19:25:42.811Z,5.40
2018-11-25T19:27:47.878Z,5.40
2018-11-25T19:29:52.315Z,5.40
2018-11-25T19:31:56.831Z,5.40
2018-11-25T19:34:01.448Z,5.40
2018-11-25T19:36:06.387Z,5.40
2018-11-25T19:38:11.019Z,5.40
2018-11-25T19:40:21.514Z,5.40
2018-11-25T19:42:26.185Z,5.40
2018-11-25T19:44:30.907Z,5.40
2018-11-25T19:46:35.484Z,5.40
2018-11-25T19:48:40.048Z,5.40
2018-11-25T19:50:44.751Z,5.40
2018-11-25T19:52:49.326Z,5.40
2018-11-25T19:54:54.105Z,5.40
2018-11-25T19:56:58.752Z,5.40
2018-11-25T19:59:03.437Z,5.50
2018-11-25T20:01:08.168Z,5.50
2018-11-25T20:03:12.710Z,5.50
2018-11-25T20:05:17.865Z,5.40
2018-11-25T20:07:22.414Z,5.50
2018-11-25T20:09:30.424Z,5.50
2018-11-25T20:11:34.995Z,5.50
2018-11-25T20:13:39.517Z,5.40
2018-11-25T20:15:44.218Z,5.50
2018-11-25T20:17:54.300Z,5.40
2018-11-25T20:19:53.465Z,5.50
2018-11-25T20:22:03.209Z,5.40
2018-11-25T20:24:07.900Z,5.40
2018-11-25T20:26:12.547Z,5.50
2018-11-25T20:28:17.214Z,5.50
2018-11-25T20:33:02.480Z,5.50
2018-11-25T20:35:07.368Z,5.50
2018-11-25T20:37:11.918Z,5.50
2018-11-25T20:39:21.660Z,5.50
2018-11-25T20:46:41.997Z,5.50
2018-11-25T20:48:46.709Z,5.50
2018-11-25T20:50:51.267Z,5.50
2018-11-25T20:53:00.974Z,5.50
2018-11-25T20:55:06.180Z,5.50
2018-11-25T20:57:10.850Z,5.50
2018-11-25T20:59:15.369Z,5.50
2018-11-25T21:01:19.873Z,5.50
2018-11-25T21:03:24.938Z,5.50
2018-11-25T21:05:29.442Z,5.50
2018-11-25T21:07:36.863Z,5.50
2018-11-25T21:09:41.298Z,5.50
2018-11-25T21:11:45.867Z,5.50
2018-11-25T21:13:51.124Z,5.50
2018-11-25T21:15:57.907Z,5.50
2018-11-25T21:18:02.611Z,5.50
2018-11-25T21:20:13.118Z,5.50
2018-11-25T21:22:17.718Z,5.50
2018-11-25T21:24:22.255Z,5.50
2018-11-25T21:26:27.075Z,5.50
2018-11-25T21:28:32.558Z,5.50
2018-11-25T21:30:37.386Z,5.50
2018-11-25T21:32:41.962Z,5.40
2018-11-25T21:34:46.471Z,5.50
2018-11-25T21:36:50.905Z,5.50
2018-11-25T21:38:55.428Z,5.40
2018-11-25T21:40:59.905Z,5.40
2018-11-25T21:43:04.463Z,5.40
2018-11-25T21:45:10.593Z,5.40
2018-11-25T21:47:17.533Z,5.40
2018-11-25T21:49:22.093Z,5.40
2018-11-25T21:51:26.523Z,5.40
2018-11-25T21:53:31.003Z,5.40
2018-11-25T21:55:35.417Z,5.30
2018-11-25T21:57:40.189Z,5.30
2018-11-25T21:59:44.589Z,5.30
2018-11-25T22:01:49.111Z,5.30
2018-11-25T22:03:53.490Z,5.30
2018-11-25T22:05:57.895Z,5.30
2018-11-25T22:08:02.266Z,5.30
2018-11-25T22:10:10.336Z,5.30
2018-11-25T22:12:14.726Z,5.30
2018-11-25T22:14:19.069Z,5.30
2018-11-25T22:16:23.478Z,5.30
2018-11-25T22:18:27.894Z,5.30
2018-11-25T22:20:32.317Z,5.30
2018-11-25T22:22:36.847Z,5.30
2018-11-25T22:24:41.253Z,5.30
2018-11-25T22:26:45.684Z,5.30
2018-11-25T22:28:50.152Z,5.30
2018-11-25T22:30:54.562Z,5.30
2018-11-25T22:32:58.941Z,5.30
2018-11-25T22:35:03.340Z,5.30
2018-11-25T22:37:08.035Z,5.20
2018-11-25T22:39:12.446Z,5.30
2018-11-25T22:41:16.805Z,5.30
2018-11-25T22:43:21.869Z,5.30
2018-11-25T22:45:26.350Z,5.30
2018-11-25T22:47:30.980Z,5.30
2018-11-25T22:49:35.364Z,5.30
2018-11-25T22:51:40.733Z,5.30
2018-11-25T22:53:45.126Z,5.30
2018-11-25T22:55:49.497Z,5.30
2018-11-25T22:57:53.953Z,5.30
2018-11-25T22:59:58.321Z,5.40
2018-11-25T23:02:05.788Z,5.30
2018-11-25T23:04:24.040Z,5.30
2018-11-25T23:06:39.312Z,5.30
2018-11-25T23:08:43.724Z,5.30
2018-11-25T23:10:48.109Z,5.30
2018-11-25T23:12:52.525Z,5.30
2018-11-25T23:14:56.981Z,5.40
2018-11-25T23:17:01.354Z,5.40
2018-11-25T23:19:06.106Z,5.40
2018-11-25T23:21:10.489Z,5.40
2018-11-25T23:23:14.902Z,5.40
2018-11-25T23:25:19.312Z,5.40
2018-11-25T23:27:23.693Z,5.40
2018-11-25T23:29:28.110Z,5.40
2018-11-25T23:31:32.548Z,5.40
2018-11-25T23:33:36.960Z,5.40
2018-11-25T23:35:41.403Z,5.40
2018-11-25T23:37:45.932Z,5.40
2018-11-25T23:39:50.341Z,5.40
2018-11-25T23:41:54.874Z,5.40
2018-11-25T23:43:59.248Z,5.40
2018-11-25T23:46:03.686Z,5.40
2018-11-25T23:48:08.103Z,5.40
2018-11-25T23:50:13.238Z,5.40
2018-11-25T23:52:17.637Z,5.40
2018-11-25T23:54:22.051Z,5.40
2018-11-25T23:56:26.513Z,5.40
2018-11-25T23:58:30.965Z,5.40
